EDNY

Friedrichshafen Airport

Friedrichshafen, Germany
TAF EDNY 211700Z 2118/2218 25005KT 9999 SCT030 PROB30 TEMPO 2118/2120 27015G25KT 4000 TSRA BKN012CB PROB30 TEMPO 2215/2218 36015G25KT 4000 TSRA BKN012 BKN020CB
Issued Valid From Valid To
Jul-21 @ 17:00 UTC
(6 hours ago)
Jul-21 @ 18:00 UTC
(5 hours ago)
Jul-22 @ 18:00 UTC
(in 19 hours)
Jul-21 @ 18:00 to Jul-22 @ 18:00
TAF EDNY 211700Z 2118/2218 25005KT 9999 SCT030
Wind Visibility Clouds
250° at 5 knots 10,000+ meters
  • Scattered at 3,000' AGL
Expired Click to View Jul-21 @ 18:00 to Jul-21 @ 20:00
PROB30 TEMPO 2118/2120 27015G25KT 4000 TSRA BKN012CB
Wind Visibility Clouds Conditions
270° at 15 knots
 Gusting to 25 knots
4,007 meters
  • Broken at 1,200' AGL
  • Thunderstorm
  • Rain
Temporary  (Probability 30%) Jul-22 @ 15:00 to Jul-22 @ 18:00
PROB30 TEMPO 2215/2218 36015G25KT 4000 TSRA BKN012 BKN020CB
Wind Visibility Clouds Conditions
360° at 15 knots
 Gusting to 25 knots
4,007 meters
  • Broken at 1,200' AGL
  • Broken at 2,000' AGL
  • Thunderstorm
  • Rain
TAF EDNY 211700Z 2118/2218 25005KT 9999 SCT030 PROB30 TEMPO 2118/2120 27015G25KT 4000 TSRA BKN012CB PROB30 TEMPO 2215/2218 36015G25KT 4000 TSRA BKN012 BKN020CB
Issued Jul-21 @ 17:00 UTC
(6 hours ago)
Valid From Jul-21 @ 18:00 UTC
(5 hours ago)
Valid To Jul-22 @ 18:00 UTC
(in 19 hours)
Jul-21 @ 18:00 - Jul-22 @ 18:00
Wind Visibility
250° at 5 knots 10,000+ meters
Clouds
  • Scattered at 3,000' AGL
Jul-21 @ 18:00 - Jul-21 @ 20:00
Wind Visibility
270° at 15 knots
 Gusting to 25 knots
4,007 meters
Clouds
  • Broken at 1,200' AGL
Conditions
  • Thunderstorm
  • Rain
Probability 30% Temporary Jul-22 @ 15:00 - Jul-22 @ 18:00
Wind Visibility
360° at 15 knots
 Gusting to 25 knots
4,007 meters
Clouds
  • Broken at 1,200' AGL
  • Broken at 2,000' AGL
Conditions
  • Thunderstorm
  • Rain